Archival Weather

Chicago O'Hare International

Chicago, Illinois (KORD)

Report from: Monday, January 2, 2023 3:37 AM CST
Current time: Monday, June 17, 2024 1:27 AM CDT

Current weather – Weather history – Daily summaries
Weather forecast

Present weatherFog patches, mist
Temperature0.6°C (33.1°F)
Wind chill-1.8°C (28.7°F)
Dew point-1.1°C (30.0°F)
Winds 4 kts (2.1 m/s, 4.6 mph) North (10°)
Visibility3 mi. (4.8 km)
Clouds Scattered clouds 200 ft. (61 m)
Scattered clouds 14,000 ft. (4,267 m)
Altimeter30.01 in.Hg (1016 mB)
Relative humidity88 %
Density altitude-1,774 ft. (-541 m)
Remarks Automated weather observing station with precipitation discriminator
Flight conditions Marginal Visual Meteorological Conditions
Raw dataKORD 020937Z 01004KT 3SM R10L/1600V4000FT BCFG BR SCT002 SCT140 01/M01 A3001 RMK AO2 T00061011
An error has occurred. This application may no longer respond until reloaded. Reload 🗙